Time;durP1;ratioP1;P1;durP2;ratioP2;P2;SDS_P1;SDS_P2;PMS_P1;PMS_P2;Temp;Humidity;BMP_temperature;BMP_pressure;BME280_temperature;BME280_humidity;BME280_pressure;Samples;Min_cycle;Max_cycle;Signal;HPM_P1;HPM_P2
2022/11/28 00:02:10;;;;;;;32.53;14.00;;;;;;;-2.13;71.99;101793.66;5052747;28;20348;-51
2022/11/28 00:04:36;;;;;;;23.30;10.32;;;;;;;-1.89;71.02;101810.34;5051911;28;20040;-55
2022/11/28 00:07:01;;;;;;;25.08;10.10;;;;;;;-1.89;70.77;101821.75;5052482;28;20029;-55
2022/11/28 00:09:27;;;;;;;21.08;10.52;;;;;;;-1.82;70.36;101808.63;5037694;28;20443;-55
2022/11/28 00:11:52;;;;;;;22.90;9.45;;;;;;;-1.96;70.86;101804.19;5031994;28;20025;-53
2022/11/28 00:14:18;;;;;;;26.40;12.43;;;;;;;-2.14;71.41;101799.78;5038952;28;20107;-54
2022/11/28 00:16:45;;;;;;;26.27;11.40;;;;;;;-2.08;71.54;101823.41;5050726;28;20452;-54
2022/11/28 00:19:12;;;;;;;25.00;12.02;;;;;;;-2.08;71.61;101804.19;5032965;28;20468;-54
2022/11/28 00:21:38;;;;;;;18.33;8.75;;;;;;;-2.00;71.45;101797.19;5032022;28;20085;-54
2022/11/28 00:24:05;;;;;;;26.42;13.38;;;;;;;-2.06;71.57;101799.81;5032275;28;20029;-55
2022/11/28 00:26:33;;;;;;;24.17;10.82;;;;;;;-2.00;71.62;101801.59;5042374;28;20374;-55
2022/11/28 00:28:59;;;;;;;20.45;8.82;;;;;;;-1.94;71.24;101810.34;5052413;28;20055;-55
2022/11/28 00:31:30;;;;;;;23.77;11.77;;;;;;;-2.12;71.99;101798.03;5052012;28;20448;-57
2022/11/28 00:33:56;;;;;;;26.35;11.70;;;;;;;-1.92;71.00;101798.13;5052048;28;20033;-57
2022/11/28 00:36:23;;;;;;;28.35;13.68;;;;;;;-2.10;71.88;101803.28;5052284;28;20044;-55
2022/11/28 00:38:49;;;;;;;28.08;13.65;;;;;;;-2.12;72.39;101791.91;5052317;28;20031;-56
2022/11/28 00:41:24;;;;;;;14.35;7.03;;;;;;;-1.84;72.02;101800.75;5049268;28;20116;-57
2022/11/28 00:43:50;;;;;;;26.52;12.13;;;;;;;-2.06;71.89;101781.44;5051971;28;20028;-55
2022/11/28 00:46:17;;;;;;;26.65;13.75;;;;;;;-2.02;71.53;101791.06;5033081;28;20410;-57
2022/11/28 00:48:44;;;;;;;21.92;11.63;;;;;;;-1.93;71.43;101801.63;5032408;28;20101;-57
2022/11/28 00:51:15;;;;;;;30.60;14.85;;;;;;;-2.07;72.16;101790.19;5032137;28;20049;-51
2022/11/28 00:53:42;;;;;;;26.70;13.40;;;;;;;-1.92;71.95;101795.50;5032056;28;20042;-53
2022/11/28 00:56:12;;;;;;;24.48;9.38;;;;;;;-1.79;71.05;101799.03;5049240;28;20106;-56
2022/11/28 00:58:38;;;;;;;28.63;11.25;;;;;;;-1.99;71.52;101782.34;5052284;28;20044;-54
2022/11/28 01:01:16;;;;;;;16.08;6.60;;;;;;;-1.88;71.49;101789.38;5050874;28;20029;-55
2022/11/28 01:03:42;;;;;;;22.52;10.38;;;;;;;-1.87;71.33;101795.47;5042865;28;20030;-54
2022/11/28 01:06:09;;;;;;;28.40;13.90;;;;;;;-2.08;72.28;101785.81;5032075;28;20064;-54
2022/11/28 01:08:34;;;;;;;28.90;13.60;;;;;;;-2.05;72.48;101780.56;5030765;28;20360;-57
2022/11/28 01:11:01;;;;;;;26.85;12.77;;;;;;;-1.97;72.44;101783.22;5045713;28;20125;-54
2022/11/28 01:13:26;;;;;;;31.33;14.20;;;;;;;-1.97;72.49;101784.06;5035262;28;20029;-52
2022/11/28 01:15:52;;;;;;;27.77;13.02;;;;;;;-1.88;71.98;101796.34;5035229;28;20125;-53
2022/11/28 01:18:17;;;;;;;28.27;13.27;;;;;;;-1.86;72.33;101809.50;5035516;28;20029;-56
2022/11/28 01:20:43;;;;;;;26.42;11.23;;;;;;;-1.76;71.22;101808.66;5035303;28;20108;-52
2022/11/28 01:23:08;;;;;;;24.23;11.15;;;;;;;-1.85;71.62;101795.50;5050107;28;20029;-54
2022/11/28 01:25:34;;;;;;;26.63;12.52;;;;;;;-1.92;71.85;101805.09;5055229;28;20033;-57
2022/11/28 01:28:00;;;;;;;27.83;11.50;;;;;;;-1.96;71.74;101793.69;5043561;28;20507;-53
2022/11/28 01:30:25;;;;;;;31.02;12.90;;;;;;;-2.10;72.69;101791.03;5033994;28;20063;-53
2022/11/28 01:32:50;;;;;;;30.98;13.77;;;;;;;-2.10;72.74;101795.41;5035484;28;20033;-54
2022/11/28 01:35:16;;;;;;;25.70;12.60;;;;;;;-2.08;72.97;101791.06;5035334;28;20026;-55
2022/11/28 01:37:42;;;;;;;25.25;12.20;;;;;;;-2.04;73.19;101792.81;5042896;28;20576;-54
2022/11/28 01:40:10;;;;;;;28.90;14.32;;;;;;;-2.05;72.48;101770.94;5053414;28;20424;-57
2022/11/28 01:42:35;;;;;;;25.17;11.57;;;;;;;-1.89;72.06;101786.72;5034825;28;20083;-56
2022/11/28 01:45:07;;;;;;;22.48;9.93;;;;;;;-1.84;71.84;101797.25;5034705;28;20391;-54
2022/11/28 01:47:33;;;;;;;29.52;13.98;;;;;;;-1.99;72.71;101788.44;5046826;28;20037;-54
2022/11/28 01:49:59;;;;;;;29.08;13.20;;;;;;;-1.83;72.04;101793.75;5054500;28;20029;-53
2022/11/28 01:52:25;;;;;;;29.42;13.48;;;;;;;-1.96;72.21;101796.31;5040014;28;20112;-55
2022/11/28 01:54:56;;;;;;;22.13;10.60;;;;;;;-1.91;71.64;101796.34;5034933;28;20158;-53
2022/11/28 01:57:24;;;;;;;26.38;12.35;;;;;;;-2.08;72.09;101798.94;5034877;28;20118;-54
2022/11/28 01:59:57;;;;;;;13.65;8.07;;;;;;;-2.03;72.11;101808.59;5049339;28;20029;-58
2022/11/28 02:02:32;;;;;;;24.77;11.05;;;;;;;-2.09;72.40;101805.91;5053836;28;20044;-52
2022/11/28 02:04:58;;;;;;;19.55;9.40;;;;;;;-2.08;71.64;101794.53;5054834;28;20498;-53
2022/11/28 02:07:24;;;;;;;17.23;8.00;;;;;;;-2.22;72.32;101814.63;5052913;28;20044;-52
2022/11/28 02:09:49;;;;;;;17.52;9.65;;;;;;;-2.12;71.93;101803.28;5054689;28;20359;-56
2022/11/28 02:12:42;;;;;;;21.33;10.40;;;;;;;-2.31;72.43;101808.44;5054485;28;20033;-56
2022/11/28 02:15:11;;;;;;;16.23;8.25;;;;;;;-2.25;71.29;101807.59;5050706;28;20030;-55
2022/11/28 02:17:55;;;;;;;18.42;9.30;;;;;;;-2.30;72.15;101809.31;5040924;28;20902;-55
2022/11/28 02:20:39;;;;;;;14.50;7.40;;;;;;;-2.31;71.50;101828.56;5053875;28;20029;-55
2022/11/28 02:23:25;;;;;;;12.73;7.50;;;;;;;-2.42;72.57;101823.25;5054409;28;20044;-57
2022/11/28 02:25:59;;;;;;;13.80;8.30;;;;;;;-2.40;71.87;101823.28;5054601;28;20086;-53
2022/11/28 02:28:28;;;;;;;10.45;5.63;;;;;;;-2.42;71.25;101825.88;5053972;28;20110;-54
2022/11/28 02:31:23;;;;;;;15.82;9.02;;;;;;;-2.51;71.78;101837.19;5054095;28;20558;-55
2022/11/28 02:33:59;;;;;;;14.88;8.05;;;;;;;-2.56;71.76;101830.16;5054029;28;20086;-55
2022/11/28 02:36:35;;;;;;;16.80;9.50;;;;;;;-2.77;72.41;101826.56;5045619;28;20033;-53
2022/11/28 02:39:22;;;;;;;16.10;9.07;;;;;;;-2.53;71.90;101865.16;5046287;28;20459;-57
2022/11/28 02:42:07;;;;;;;11.95;6.97;;;;;;;-2.56;71.14;101835.41;5054127;28;20033;-54
2022/11/28 02:44:33;;;;;;;;;;;;;;;-2.40;70.51;101844.28;5054307;28;20055;-52
2022/11/28 02:47:04;;;;;;;11.48;6.80;;;;;;;-2.75;70.81;101833.53;5053643;28;19924;-54
2022/11/28 02:49:35;;;;;;;14.00;7.50;;;;;;;-2.85;72.21;101851.81;5053627;28;20115;-55
2022/11/28 02:52:08;;;;;;;11.10;5.97;;;;;;;-2.77;70.83;101829.19;5053857;28;20044;-51
2022/11/28 02:54:35;;;;;;;16.63;8.55;;;;;;;-2.92;70.78;101814.19;5053299;28;20025;-54
2022/11/28 02:57:02;;;;;;;17.27;9.70;;;;;;;-2.89;71.22;101843.06;5045470;28;20105;-55
2022/11/28 02:59:36;;;;;;;17.35;8.63;;;;;;;-2.70;71.17;101845.81;5033414;28;20503;-53
2022/11/28 03:02:04;;;;;;;13.90;8.47;;;;;;;-2.85;70.23;101842.22;5037855;28;20043;-54
2022/11/28 03:04:55;;;;;;;15.90;7.43;;;;;;;-2.82;70.55;101852.72;5053264;28;20732;-50
2022/11/28 03:07:42;;;;;;;15.95;5.72;;;;;;;-2.77;69.85;101855.41;5037514;28;20052;-55
2022/11/28 03:10:39;;;;;;;15.88;8.60;;;;;;;-2.84;70.47;101856.19;5033238;28;20037;-49
2022/11/28 03:13:37;;;;;;;16.35;8.30;;;;;;;-2.94;70.22;101868.34;5033324;28;20037;-53
2022/11/28 03:16:25;;;;;;;17.15;8.73;;;;;;;-3.04;71.01;101864.75;5042933;28;20444;-55
2022/11/28 03:19:00;;;;;;;14.15;6.43;;;;;;;-2.85;70.65;101862.31;5053109;28;20363;-53
2022/11/28 03:21:41;;;;;;;18.03;9.33;;;;;;;-2.89;70.52;101858.78;5047153;28;20444;-53
2022/11/28 03:24:12;;;;;;;18.77;9.50;;;;;;;-2.95;70.34;101863.97;5033049;28;20047;-56
2022/11/28 03:26:54;;;;;;;14.02;6.68;;;;;;;-2.91;70.30;101857.88;5041990;28;20360;-57
2022/11/28 03:29:27;;;;;;;15.65;8.80;;;;;;;-2.98;70.63;101875.31;5052702;28;20099;-55
2022/11/28 03:31:58;;;;;;;18.30;9.23;;;;;;;-2.86;70.23;101866.69;5053112;28;20034;-59
2022/11/28 03:34:31;;;;;;;15.63;9.07;;;;;;;-2.91;70.34;101873.59;5044918;28;20029;-51
2022/11/28 03:37:02;;;;;;;11.70;6.90;;;;;;;-2.83;69.45;101876.28;5032910;28;20440;-53
2022/11/28 03:39:34;;;;;;;17.27;9.10;;;;;;;-2.95;69.64;101879.69;5032618;28;20021;-53
2022/11/28 03:42:19;;;;;;;11.50;6.85;;;;;;;-2.94;70.64;101886.69;5032871;28;20033;-52
2022/11/28 03:44:50;;;;;;;17.27;9.80;;;;;;;-2.99;70.10;101876.19;5032620;28;20434;-55
2022/11/28 03:47:17;;;;;;;14.57;8.10;;;;;;;-2.95;70.39;101877.06;5032429;28;20093;-53
2022/11/28 03:49:47;;;;;;;17.15;9.60;;;;;;;-2.98;70.43;101882.28;5033802;28;20372;-51
2022/11/28 03:52:26;;;;;;;18.10;9.80;;;;;;;-3.12;70.33;101842.88;5038995;28;20048;-54
2022/11/28 03:54:56;;;;;;;15.48;8.52;;;;;;;-2.75;69.06;101882.50;5033658;28;20045;-56
2022/11/28 03:57:42;;;;;;;17.33;9.30;;;;;;;-2.97;70.45;101878.81;5032898;28;20472;-54
2022/11/28 04:00:10;;;;;;;;;;;;;;;-2.64;69.61;101877.34;5041875;28;20044;-56
2022/11/28 04:02:39;;;;;;;16.75;8.65;;;;;;;-2.85;69.66;101878.91;5052313;28;19917;-53
2022/11/28 04:05:18;;;;;;;16.95;9.93;;;;;;;-2.90;70.22;101899.84;5052482;28;20474;-57
2022/11/28 04:07:57;;;;;;;15.20;8.93;;;;;;;-2.91;69.95;101891.94;5052556;28;20037;-53
2022/11/28 04:10:33;;;;;;;17.63;9.60;;;;;;;-3.03;70.28;101893.63;5044292;28;20084;-53
2022/11/28 04:13:20;;;;;;;17.67;7.78;;;;;;;-3.05;70.57;101895.34;5032465;28;20155;-56
2022/11/28 04:16:02;;;;;;;20.83;11.32;;;;;;;-3.14;71.01;101892.63;5050359;28;20120;-52
2022/11/28 04:18:54;;;;;;;17.90;9.52;;;;;;;-2.91;70.39;101894.56;5049687;28;20445;-58
2022/11/28 04:21:42;;;;;;;19.98;11.55;;;;;;;-3.00;70.50;101886.66;5036019;28;20041;-51
2022/11/28 04:24:13;;;;;;;14.75;7.47;;;;;;;-2.93;69.34;101883.19;5051998;28;20478;-50
2022/11/28 04:26:44;;;;;;;16.13;9.93;;;;;;;-3.16;69.91;101873.38;5052144;28;20025;-54
2022/11/28 04:29:15;;;;;;;22.70;11.18;;;;;;;-3.01;69.70;101900.63;5051685;28;20131;-57
2022/11/28 04:31:44;;;;;;;15.35;7.85;;;;;;;-3.09;70.63;101906.66;5052115;28;20467;-60
2022/11/28 04:34:15;;;;;;;20.08;11.35;;;;;;;-3.13;70.22;101904.88;5051960;28;20386;-57
2022/11/28 04:36:43;;;;;;;18.88;9.25;;;;;;;-3.03;69.93;101890.09;5052224;28;20031;-59
2022/11/28 04:39:14;;;;;;;18.65;9.45;;;;;;;-3.07;70.13;101893.56;5050229;28;20359;-58
2022/11/28 04:41:47;;;;;;;20.05;9.98;;;;;;;-3.03;70.72;101904.09;5050267;28;20036;-52
2022/11/28 04:44:28;;;;;;;19.25;9.48;;;;;;;-3.19;70.85;101902.19;5032824;28;20041;-57
2022/11/28 04:46:55;;;;;;;20.55;10.77;;;;;;;-3.46;70.52;101862.66;5036209;28;20054;-51
2022/11/28 04:49:22;;;;;;;21.70;11.80;;;;;;;-3.26;71.62;101896.00;5034923;28;20037;-62
2022/11/28 04:52:08;;;;;;;18.20;9.73;;;;;;;-2.98;70.97;101908.50;5035251;28;20056;-57
2022/11/28 04:54:37;;;;;;;20.63;10.35;;;;;;;-2.98;70.56;101909.41;5035699;28;20030;-57
2022/11/28 04:57:33;;;;;;;23.88;11.75;;;;;;;-3.01;70.26;101911.09;5036058;28;20037;-59
2022/11/28 05:00:06;;;;;;;19.90;9.73;;;;;;;-2.95;69.73;101908.53;5035285;28;20052;-54
2022/11/28 05:02:34;;;;;;;22.85;11.77;;;;;;;-3.06;70.25;101916.28;5042558;28;20086;-59
2022/11/28 05:04:59;;;;;;;19.65;10.10;;;;;;;-3.24;70.33;101889.06;5055501;28;20440;-58
2022/11/28 05:07:24;;;;;;;22.33;11.35;;;;;;;-3.18;70.39;101917.03;5055177;28;20086;-52
2022/11/28 05:09:50;;;;;;;19.10;10.18;;;;;;;-3.11;70.81;101910.13;5054521;28;20025;-64
2022/11/28 05:12:16;;;;;;;21.83;12.07;;;;;;;-3.10;70.54;101920.63;5039898;28;20059;-55
2022/11/28 05:14:41;;;;;;;20.90;10.52;;;;;;;-2.97;70.61;101923.38;5038700;28;20040;-57
2022/11/28 05:17:07;;;;;;;23.58;11.05;;;;;;;-3.01;70.69;101921.59;5035672;28;20037;-61
2022/11/28 05:19:32;;;;;;;22.27;10.32;;;;;;;-2.92;70.31;101929.53;5035052;28;20021;-61
2022/11/28 05:21:58;;;;;;;23.70;11.68;;;;;;;-2.99;69.84;101904.13;5034339;28;20045;-58
2022/11/28 05:24:24;;;;;;;21.35;11.55;;;;;;;-2.83;70.26;101928.72;5035326;28;20026;-57
2022/11/28 05:26:49;;;;;;;20.20;12.13;;;;;;;-2.91;70.49;101931.28;5044908;28;20043;-61
2022/11/28 05:29:16;;;;;;;24.13;12.30;;;;;;;-2.91;70.58;101939.13;5054230;28;20032;-60
2022/11/28 05:31:41;;;;;;;21.55;11.82;;;;;;;-2.89;70.22;101945.31;5048756;28;20057;-57
2022/11/28 05:34:07;;;;;;;18.95;11.18;;;;;;;-3.51;70.46;101845.13;5035802;28;20130;-61
2022/11/28 05:36:32;;;;;;;19.80;10.63;;;;;;;-2.88;70.62;101953.16;5035350;28;20436;-55
2022/11/28 05:38:58;;;;;;;22.95;12.10;;;;;;;-2.84;70.44;101937.47;5043000;28;20025;-60
2022/11/28 05:41:29;;;;;;;24.25;11.30;;;;;;;-2.77;70.41;101945.41;5054592;28;20049;-59
2022/11/28 05:43:56;;;;;;;25.88;12.18;;;;;;;-2.72;70.03;101949.81;5054284;28;20452;-59
2022/11/28 05:46:22;;;;;;;24.48;12.25;;;;;;;-2.75;69.68;101955.91;5055110;28;20539;-60
2022/11/28 05:48:48;;;;;;;25.30;12.55;;;;;;;-2.70;69.85;101959.44;5054903;28;20060;-60
2022/11/28 05:51:13;;;;;;;21.30;11.90;;;;;;;-2.74;69.95;101962.91;5041076;28;20120;-60
2022/11/28 05:53:39;;;;;;;20.45;9.48;;;;;;;-2.48;68.85;101984.09;5043789;28;20032;-60
2022/11/28 05:56:09;;;;;;;20.13;11.30;;;;;;;-2.64;69.30;101964.75;5039507;28;20395;-57
2022/11/28 05:58:35;;;;;;;25.20;12.00;;;;;;;-2.78;69.80;101967.25;5034812;28;20068;-58
2022/11/28 06:01:12;;;;;;;23.27;12.15;;;;;;;-2.77;69.42;101966.38;5034882;28;20503;-61
2022/11/28 06:03:37;;;;;;;23.15;12.18;;;;;;;-2.73;69.46;101969.91;5035748;28;20033;-59
2022/11/28 06:06:03;;;;;;;22.05;12.07;;;;;;;-2.78;70.00;101964.63;5053395;28;20497;-61
2022/11/28 06:08:29;;;;;;;24.58;13.07;;;;;;;-2.75;69.65;101974.28;5053297;28;20033;-60
2022/11/28 06:10:58;;;;;;;24.27;12.73;;;;;;;-2.82;70.07;101961.94;5054000;28;20140;-59
2022/11/28 06:13:24;;;;;;;24.35;12.85;;;;;;;-2.78;70.81;101972.47;5054223;28;20457;-58
2022/11/28 06:15:49;;;;;;;21.73;11.68;;;;;;;-2.62;70.49;101972.63;5036261;28;20375;-51
2022/11/28 06:18:15;;;;;;;21.05;11.73;;;;;;;-2.57;70.50;101963.06;5034061;28;20042;-58
2022/11/28 06:20:40;;;;;;;27.70;13.88;;;;;;;-2.49;69.67;101976.25;5036014;28;20559;-61
2022/11/28 06:23:06;;;;;;;21.65;11.82;;;;;;;-2.25;68.80;101965.03;5054183;28;20103;-62
2022/11/28 06:25:31;;;;;;;22.85;12.70;;;;;;;-2.37;69.12;101967.59;5046931;28;20021;-62
2022/11/28 06:27:56;;;;;;;20.25;10.88;;;;;;;-2.33;69.26;101979.88;5041036;28;20451;-63
2022/11/28 06:30:22;;;;;;;20.42;11.93;;;;;;;-2.36;69.34;101971.97;5053721;28;20065;-58
2022/11/28 06:32:47;;;;;;;22.42;12.32;;;;;;;-2.31;68.85;101968.50;5035729;28;20108;-55
2022/11/28 06:35:13;;;;;;;20.38;11.27;;;;;;;-2.32;68.78;101973.75;5033056;28;20360;-60
2022/11/28 06:37:38;;;;;;;19.58;11.32;;;;;;;-2.34;69.32;101971.09;5043511;28;20104;-58
2022/11/28 06:40:04;;;;;;;20.60;11.13;;;;;;;-2.26;68.87;101975.53;5037256;28;20121;-59
2022/11/28 06:42:30;;;;;;;20.98;11.15;;;;;;;-2.27;68.85;101972.03;5033867;28;20044;-60
2022/11/28 06:44:55;;;;;;;19.83;10.85;;;;;;;-2.17;68.25;101976.50;5033794;28;20029;-61
2022/11/28 06:47:21;;;;;;;20.42;10.95;;;;;;;-2.20;67.88;101984.31;5047523;28;20084;-63
2022/11/28 06:49:47;;;;;;;19.25;12.43;;;;;;;-2.12;67.47;101981.75;5053601;28;20036;-59
2022/11/28 06:52:13;;;;;;;17.42;10.43;;;;;;;-2.14;67.37;101977.38;5053618;28;20037;-60
2022/11/28 06:54:38;;;;;;;21.23;12.05;;;;;;;-2.08;67.53;101982.66;5038005;28;20029;-60
2022/11/28 06:57:04;;;;;;;18.88;10.75;;;;;;;-2.31;67.51;101954.50;5039796;28;20040;-61
2022/11/28 06:59:29;;;;;;;20.45;9.02;;;;;;;-2.11;67.55;101980.88;5031991;28;20065;-59
2022/11/28 07:01:56;;;;;;;17.77;10.00;;;;;;;-2.32;67.93;101973.75;5038847;28;20068;-60
2022/11/28 07:04:22;;;;;;;18.40;10.50;;;;;;;-2.14;67.12;101972.13;5038749;28;20036;-61
2022/11/28 07:06:47;;;;;;;19.77;10.88;;;;;;;-2.20;67.37;101986.09;5032440;28;20063;-61
2022/11/28 07:09:13;;;;;;;24.80;11.95;;;;;;;-2.20;67.44;101989.56;5033090;28;20090;-61
2022/11/28 07:11:40;;;;;;;23.48;12.98;;;;;;;-2.25;67.06;101977.31;5032044;28;20034;-60
2022/11/28 07:14:06;;;;;;;19.05;10.07;;;;;;;-2.12;66.71;101986.13;5033168;28;20025;-60
2022/11/28 07:16:32;;;;;;;19.98;11.20;;;;;;;-2.23;67.23;101994.78;5037962;28;20341;-58
2022/11/28 07:18:58;;;;;;;18.38;9.90;;;;;;;-2.38;67.35;101987.69;5049890;28;20083;-61
2022/11/28 07:21:25;;;;;;;25.90;12.77;;;;;;;-2.49;68.37;101990.22;5052559;28;20067;-60
2022/11/28 07:23:50;;;;;;;21.83;12.88;;;;;;;-2.52;68.76;101998.06;5051997;28;20033;-59
2022/11/28 07:26:18;;;;;;;21.88;12.15;;;;;;;-2.52;69.22;101994.59;5052582;28;20043;-57
2022/11/28 07:28:45;;;;;;;21.70;12.32;;;;;;;-2.41;69.04;102007.75;5052071;28;20466;-57
2022/11/28 07:31:16;;;;;;;23.17;12.25;;;;;;;-2.29;68.75;102004.34;5052268;28;20090;-61
2022/11/28 07:33:45;;;;;;;22.25;11.98;;;;;;;-2.43;68.16;101967.53;5052349;28;20115;-57
2022/11/28 07:36:13;;;;;;;23.08;12.32;;;;;;;-2.22;67.78;101990.44;5052125;28;20033;-61
2022/11/28 07:38:38;;;;;;;27.48;12.57;;;;;;;-2.29;67.37;101986.88;5052704;28;20116;-59
2022/11/28 07:41:06;;;;;;;20.23;11.85;;;;;;;-2.55;68.79;101965.69;5052161;28;20108;-61
2022/11/28 07:43:31;;;;;;;19.38;11.95;;;;;;;-2.32;69.00;101999.97;5052131;28;20032;-60
2022/11/28 07:45:58;;;;;;;19.05;9.40;;;;;;;-2.13;67.68;101995.75;5051853;28;20055;-61
2022/11/28 07:48:23;;;;;;;18.08;10.75;;;;;;;-2.17;67.54;102000.13;5052261;28;20052;-60
2022/11/28 07:50:49;;;;;;;14.93;7.93;;;;;;;-2.21;67.30;102011.44;5052622;28;20100;-57
2022/11/28 07:53:14;;;;;;;21.00;10.35;;;;;;;-2.12;67.02;102008.00;5051669;28;20399;-62
2022/11/28 07:55:40;;;;;;;16.52;8.88;;;;;;;-2.04;66.65;102008.06;5052306;28;20029;-60
2022/11/28 07:58:05;;;;;;;15.70;9.02;;;;;;;-2.17;66.37;102015.84;5052477;28;20025;-58
2022/11/28 08:00:32;;;;;;;14.02;7.13;;;;;;;-2.21;66.93;102005.31;5052246;28;20044;-59
2022/11/28 08:02:57;;;;;;;15.27;8.82;;;;;;;-2.18;66.58;102002.72;5051487;28;20065;-59
2022/11/28 08:05:23;;;;;;;17.83;7.65;;;;;;;-2.10;66.61;102023.78;5052170;28;20056;-62
2022/11/28 08:07:50;;;;;;;15.35;9.15;;;;;;;-2.17;66.73;102010.63;5052221;28;20464;-62
2022/11/28 08:10:15;;;;;;;17.40;9.75;;;;;;;-2.31;67.28;102017.47;5052227;28;20082;-57
2022/11/28 08:12:41;;;;;;;17.23;9.43;;;;;;;-2.20;66.73;102028.94;5035360;28;20026;-61
2022/11/28 08:15:07;;;;;;;18.75;9.35;;;;;;;-2.31;66.99;102009.63;5045411;28;21169;-58
2022/11/28 08:17:33;;;;;;;13.95;8.38;;;;;;;-2.20;66.56;102015.81;5050924;28;20103;-60
2022/11/28 08:19:59;;;;;;;19.73;9.93;;;;;;;-2.41;67.28;102021.78;5050102;28;20103;-61
2022/11/28 08:22:25;;;;;;;19.33;9.93;;;;;;;-2.42;67.48;102030.50;5048733;28;20041;-57
2022/11/28 08:24:50;;;;;;;14.45;9.15;;;;;;;-2.32;66.75;102023.59;5050125;28;20043;-58
2022/11/28 08:27:16;;;;;;;16.95;9.48;;;;;;;-2.41;67.23;102029.66;5051329;28;20410;-57
2022/11/28 08:29:41;;;;;;;21.00;9.77;;;;;;;-2.37;67.21;102030.56;5051382;28;20340;-62
2022/11/28 08:32:06;;;;;;;20.15;10.63;;;;;;;-2.33;67.44;102034.97;5050364;28;20370;-56
2022/11/28 08:34:32;;;;;;;14.13;7.07;;;;;;;-2.17;66.55;102025.47;5048979;28;20036;-54
2022/11/28 08:36:57;;;;;;;26.25;11.70;;;;;;;-2.31;66.72;102025.34;5050561;28;20057;-56
2022/11/28 08:39:23;;;;;;;21.60;10.50;;;;;;;-2.36;67.38;102030.56;5045017;28;20467;-53
2022/11/28 08:41:48;;;;;;;19.85;10.07;;;;;;;-2.17;66.09;102034.22;5051387;28;20115;-56
2022/11/28 08:44:15;;;;;;;19.90;10.32;;;;;;;-2.28;66.93;102035.88;5049753;28;20033;-55
2022/11/28 08:46:40;;;;;;;19.70;9.82;;;;;;;-2.14;65.70;102043.00;5047411;28;20115;-56
2022/11/28 08:49:06;;;;;;;16.73;9.57;;;;;;;-2.25;66.61;102051.63;5050478;28;20036;-53
2022/11/28 08:51:31;;;;;;;17.95;10.07;;;;;;;-2.20;66.19;102044.69;5046294;28;20025;-59
2022/11/28 08:53:57;;;;;;;24.92;11.48;;;;;;;-2.17;65.93;102055.22;5050806;28;20044;-55
2022/11/28 08:56:23;;;;;;;16.13;9.38;;;;;;;-2.31;66.65;102062.09;5051090;28;20033;-55
2022/11/28 08:58:48;;;;;;;18.13;10.00;;;;;;;-2.29;67.10;102052.50;5049916;28;20029;-58
2022/11/28 09:01:19;;;;;;;13.18;7.60;;;;;;;-2.03;66.29;102049.19;5051080;28;20491;-60
2022/11/28 09:03:46;;;;;;;17.75;10.00;;;;;;;-2.18;65.54;102037.69;5037500;28;20040;-56
2022/11/28 09:06:12;;;;;;;18.55;10.45;;;;;;;-2.25;66.26;102043.75;5051276;28;20116;-60
2022/11/28 09:08:38;;;;;;;16.92;9.63;;;;;;;-2.17;65.99;102062.22;5043617;28;20086;-53
2022/11/28 09:11:06;;;;;;;17.40;9.25;;;;;;;-2.17;66.07;102042.09;5047966;28;20037;-60
2022/11/28 09:13:31;;;;;;;15.23;8.02;;;;;;;-2.01;65.46;102060.59;5042808;28;20092;-55
2022/11/28 09:15:57;;;;;;;18.52;9.95;;;;;;;-2.07;64.91;102047.41;5031042;28;20033;-57
2022/11/28 09:18:22;;;;;;;16.40;8.45;;;;;;;-2.08;65.02;102040.41;5034983;28;20136;-55
2022/11/28 09:20:48;;;;;;;17.20;9.77;;;;;;;-2.23;65.36;102041.16;5031874;28;20439;-55
2022/11/28 09:23:13;;;;;;;17.02;9.57;;;;;;;-2.27;65.28;102040.25;5034070;28;20048;-56
2022/11/28 09:25:39;;;;;;;20.92;10.13;;;;;;;-2.39;65.37;102033.16;5048481;28;20459;-54
2022/11/28 09:28:05;;;;;;;18.67;8.75;;;;;;;-2.14;64.89;102061.38;5039577;28;20084;-58
2022/11/28 09:30:32;;;;;;;18.02;9.88;;;;;;;-2.19;65.41;102069.19;5033447;28;20036;-54
2022/11/28 09:32:57;;;;;;;13.85;8.00;;;;;;;-2.14;65.02;102053.50;5034260;28;20448;-54
2022/11/28 09:35:22;;;;;;;15.43;8.10;;;;;;;-2.19;64.37;102067.44;5047011;28;20116;-57
2022/11/28 09:37:48;;;;;;;12.95;6.97;;;;;;;-2.15;64.35;102064.84;5046586;28;20044;-56
2022/11/28 09:40:35;;;;;;;17.73;8.05;;;;;;;-2.14;64.09;102045.63;5033898;28;20372;-55
2022/11/28 09:43:03;;;;;;;13.35;7.93;;;;;;;-2.35;64.41;102062.94;5034869;28;20149;-55
2022/11/28 09:45:30;;;;;;;11.88;6.30;;;;;;;-2.10;63.59;102042.16;5033945;28;20372;-54
2022/11/28 09:48:16;;;;;;;14.77;7.43;;;;;;;-2.25;65.08;102054.25;5037897;28;20045;-55
2022/11/28 09:50:43;;;;;;;13.80;6.57;;;;;;;-2.36;63.78;102042.81;5054322;28;20124;-59
2022/11/28 09:53:33;;;;;;;16.65;7.57;;;;;;;-2.29;64.39;102041.09;5043450;28;20375;-55
2022/11/28 09:56:17;;;;;;;13.63;7.45;;;;;;;-2.31;64.69;102048.97;5033172;28;20116;-56
2022/11/28 09:58:57;;;;;;;15.48;7.78;;;;;;;-2.22;65.03;102059.53;5038420;28;20059;-52
2022/11/28 10:01:45;;;;;;;8.85;4.88;;;;;;;-2.09;63.98;102051.78;5038002;28;20040;-56
2022/11/28 10:04:31;;;;;;;14.95;6.18;;;;;;;-2.08;64.09;102062.28;5054678;28;20029;-54
2022/11/28 10:07:13;;;;;;;11.77;7.00;;;;;;;-2.20;63.70;102056.94;5054106;28;20037;-55
2022/11/28 10:09:44;;;;;;;13.95;7.20;;;;;;;-2.27;63.97;102048.13;5053351;28;20037;-58
2022/11/28 10:12:18;;;;;;;14.20;7.82;;;;;;;-2.25;63.72;102049.00;5042782;28;20040;-54
2022/11/28 10:15:02;;;;;;;9.90;4.82;;;;;;;-2.08;63.15;102050.91;5034656;28;20091;-57
2022/11/28 10:17:53;;;;;;;9.80;6.22;;;;;;;-2.16;63.37;102056.09;5034056;28;20052;-56
2022/11/28 10:20:33;;;;;;;12.15;6.45;;;;;;;-2.71;64.57;101990.88;5046742;28;20436;-54
2022/11/28 10:23:05;;;;;;;13.40;7.18;;;;;;;-2.25;64.28;102043.75;5052481;28;20048;-54
2022/11/28 10:25:39;;;;;;;11.82;5.80;;;;;;;-2.05;62.96;102032.56;5049961;28;20043;-57
2022/11/28 10:28:14;;;;;;;14.88;7.68;;;;;;;-2.19;63.70;102049.06;5048568;28;20037;-58
2022/11/28 10:30:45;;;;;;;14.40;7.45;;;;;;;-2.32;63.42;102041.97;5048030;28;20053;-55
2022/11/28 10:33:43;;;;;;;14.52;7.65;;;;;;;-2.31;64.55;102056.84;5053981;28;20037;-58
2022/11/28 10:36:20;;;;;;;14.68;8.80;;;;;;;-2.29;63.55;102046.34;5054252;28;20033;-58
2022/11/28 10:38:45;;;;;;;10.38;7.00;;;;;;;-2.29;63.17;102047.25;5050543;28;20029;-53
2022/11/28 10:41:19;;;;;;;13.60;8.60;;;;;;;-2.19;62.80;102051.69;5053092;28;20102;-53
2022/11/28 10:44:04;;;;;;;14.65;7.47;;;;;;;-2.13;63.03;102048.25;5053285;28;20055;-58
2022/11/28 10:46:38;;;;;;;13.87;8.50;;;;;;;-2.28;63.32;102053.38;5032800;28;20046;-56
2022/11/28 10:49:23;;;;;;;14.88;8.48;;;;;;;-2.18;63.29;102063.94;5050366;28;20348;-55
2022/11/28 10:51:51;;;;;;;15.30;9.02;;;;;;;-2.33;63.19;102050.69;5050024;28;20120;-55
2022/11/28 10:54:43;;;;;;;13.45;8.73;;;;;;;-2.25;63.18;102043.75;5051063;28;20090;-56
2022/11/28 10:57:20;;;;;;;15.93;10.05;;;;;;;-2.34;63.68;102047.19;5051506;28;20048;-58
2022/11/28 11:00:00;;;;;;;17.10;10.27;;;;;;;-2.35;63.89;102047.19;5046764;28;20375;-53
2022/11/28 11:02:36;;;;;;;16.27;10.02;;;;;;;-2.29;64.46;102042.00;5033701;28;20040;-55
2022/11/28 11:05:03;;;;;;;15.20;8.45;;;;;;;-2.09;63.88;102043.91;5045339;28;20041;-58
2022/11/28 11:07:31;;;;;;;10.18;5.95;;;;;;;-1.98;62.73;102044.84;5052488;28;20491;-60
2022/11/28 11:10:13;;;;;;;9.52;5.38;;;;;;;-2.15;62.59;102018.47;5042008;28;20026;-58
2022/11/28 11:12:40;;;;;;;12.60;7.80;;;;;;;-2.27;63.30;102053.38;5015789;28;20022;-59
2022/11/28 11:15:29;;;;;;;11.90;7.20;;;;;;;-2.13;62.84;102057.88;5039396;28;20056;-59
2022/11/28 11:17:55;;;;;;;10.68;7.03;;;;;;;-2.33;63.42;102045.47;5045870;28;20372;-53
2022/11/28 11:20:29;;;;;;;11.48;6.20;;;;;;;-2.32;62.92;102053.31;5033533;28;20040;-53
2022/11/28 11:23:00;;;;;;;11.52;5.75;;;;;;;-2.23;62.78;102047.28;5032782;28;20033;-54
2022/11/28 11:25:31;;;;;;;10.00;6.10;;;;;;;-2.29;62.46;102052.50;5049331;28;20033;-56
2022/11/28 11:28:03;;;;;;;10.45;6.78;;;;;;;-2.32;62.72;102066.44;5050930;28;20115;-55
2022/11/28 11:30:41;;;;;;;8.43;4.75;;;;;;;-2.14;62.22;102064.84;5043016;28;20036;-56